This is the latest recevied weather packets stored in our database for station/object 9W2GND-1. If no packets are shown the sender has not sent any weather packets the latest 10 day(s).
| Time | Temp. | Humidity | Pressure | Rain* | Wind** | Luminosity | Snow |
|---|---|---|---|---|---|---|---|
| 1778292523 | 30° C | 67% | 1013.7 hPa | - | - | - | - |
| 1778291623 | 29.44° C | 70% | 1013.9 hPa | - | - | - | - |
| 1778290722 | 29.44° C | 73% | 1013.8 hPa | - | - | - | - |
| 1778289822 | 28.33° C | 76% | 1013.7 hPa | - | - | - | - |
| 1778288922 | 27.78° C | 80% | 1013.8 hPa | - | - | - | - |
| 1778287129 | 26.67° C | 84% | 1013.5 hPa | - | - | - | - |
| 1778286229 | 26.67° C | 86% | 1013.3 hPa | - | - | - | - |
| 1778285329 | 26.67° C | 86% | 1013.1 hPa | - | - | - | - |
| 1778284429 | 26.67° C | 86% | 1012.8 hPa | - | - | - | - |
| 1778283528 | 26.67° C | 85% | 1012.6 hPa | - | - | - | - |
| 1778282628 | 26.67° C | 84% | 1012.4 hPa | - | - | - | - |
| 1778281728 | 26.67° C | 84% | 1012.3 hPa | - | - | - | - |
| 1778280828 | 26.67° C | 84% | 1012 hPa | - | - | - | - |
| 1778279928 | 26.67° C | 83% | 1011.8 hPa | - | - | - | - |
| 1778279027 | 26.67° C | 82% | 1011.6 hPa | - | - | - | - |
| 1778278127 | 27.22° C | 83% | 1011.2 hPa | - | - | - | - |
| 1778277227 | 26.67° C | 82% | 1010.9 hPa | - | - | - | - |
| 1778276327 | 27.22° C | 81% | 1010.9 hPa | - | - | - | - |
| 1778275427 | 27.22° C | 82% | 1010.8 hPa | - | - | - | - |
| 1778274527 | 27.22° C | 83% | 1010.9 hPa | - | - | - | - |
| 1778273626 | 27.22° C | 83% | 1010.8 hPa | - | - | - | - |
| 1778272726 | 27.22° C | 84% | 1010.8 hPa | - | - | - | - |
| 1778271825 | 27.22° C | 83% | 1010.7 hPa | - | - | - | - |
| 1778270925 | 27.22° C | 83% | 1010.8 hPa | - | - | - | - |
| 1778270025 | 27.22° C | 83% | 1010.9 hPa | - | - | - | - |
* Rain since midnight (hover to see other rain measurements)
** Current wind speed in m/s (hover to see current wind gust speed)